Latest Weather Observations for Port Augusta

IDS60801

Issued at 10:01 am CST Monday 21 August 2017 (issued every 30 minutes, with the page automatically refreshed every 10 minutes)

About weather observations | Map of weather stations | Latest weather observations for SA | Other Formats
Station Details ID: 018201 Name: PORT AUGUSTA AERO Lat: -32.51 Lon: 137.72 Height: 13.97 m
Data from the previous 72 hours. | See also: Recent months at Port Augusta
Date/Time
CST
Temp
°C
App
Temp
°C
Dew
Point
°C
Rel
Hum
%
Delta-T
°C
Wind Press
QNH
hPa
Press
MSL
hPa
Rain since
9am
mm
Dir  Spd
km/h
Gust
km/h
Spd
kts
Gust
kts
21/10:00am 13.5 8.5 9.4 76 2.1 WNW 26 35 14 19 1011.8 1011.8 0.0
21/09:30am 12.9 8.9 9.0 77 2.0 NW 20 28 11 15 1011.7 1011.7 0.0
21/09:00am 11.6 7.4 7.5 76 2.0 NW 19 26 10 14 1011.8 1011.8 3.4
21/08:30am 10.9 8.4 6.5 74 2.1 N 9 13 5 7 1011.6 1011.6 3.4
21/08:00am 9.2 5.2 5.0 75 1.9 N 15 22 8 12 1011.4 1011.4 3.4
21/07:30am 6.8 3.7 3.8 81 1.3 ENE 9 13 5 7 1011.1 1011.1 3.4
21/07:00am 6.3 2.4 3.3 81 1.3 NNW 13 15 7 8 1010.7 1010.7 3.4
21/06:30am 5.9 2.3 2.9 81 1.2 N 11 15 6 8 1010.6 1010.6 3.4
21/06:00am 5.3 3.0 2.5 82 1.1 SE 4 9 2 5 1010.3 1010.3 3.4
21/05:30am 5.4 2.0 2.1 79 1.3 WNW 9 11 5 6 1010.0 1010.0 3.4
21/05:00am 6.2 2.5 2.5 77 1.5 NW 11 15 6 8 1009.8 1009.8 3.4
21/04:30am 5.9 1.4 2.4 78 1.4 NNW 15 19 8 10 1009.7 1009.7 3.4
21/04:00am 6.5 1.7 2.4 75 1.7 NNW 17 20 9 11 1009.7 1009.7 3.4
21/03:30am 6.3 1.9 2.6 77 1.5 NW 15 19 8 10 1009.9 1009.9 3.4
21/03:00am 6.2 1.0 2.5 77 1.5 NW 19 22 10 12 1010.3 1010.3 3.4
21/02:30am 6.8 1.1 2.7 75 1.7 NW 22 28 12 15 1010.3 1010.3 3.4
21/02:00am 7.4 2.0 2.7 72 2.0 WNW 20 24 11 13 1010.2 1010.2 3.4
21/01:30am 7.0 2.2 2.7 74 1.8 WNW 17 22 9 12 1010.5 1010.5 3.4
21/01:00am 7.5 2.4 2.8 72 2.0 WNW 19 24 10 13 1010.8 1010.8 3.4
21/12:30am 8.3 2.9 2.5 67 2.4 WNW 20 39 11 21 1011.3 1011.3 3.4
21/12:00am 7.8 3.5 3.5 74 1.8 NW 15 17 8 9 1011.9 1011.9 3.4
 
Date/Time
CST
Temp
°C
App
Temp
°C
Dew
Point
°C
Rel
Hum
%
Delta-T
°C
Wind Press
QNH
hPa
Press
MSL
hPa
Rain since
9am
mm
Dir  Spd
km/h
Gust
km/h
Spd
kts
Gust
kts
20/11:30pm 8.2 4.3 3.5 72 2.0 NNW 13 17 7 9 1012.8 1012.8 3.4
20/11:00pm 9.2 6.1 3.8 69 2.4 NW 9 11 5 6 1013.1 1013.1 3.4
20/10:30pm 9.6 7.1 3.8 67 2.5 N 6 7 3 4 1013.3 1013.3 3.4
20/10:00pm 9.5 7.9 4.3 70 2.3 N 2 7 1 4 1013.8 1013.8 3.4
20/09:30pm 9.8 7.4 4.4 69 2.4 NNE 6 7 3 4 1014.2 1014.2 3.4
20/09:00pm 9.2 6.0 5.2 76 1.8 NNE 11 13 6 7 1014.4 1014.4 3.4
20/08:30pm 9.3 5.8 5.3 76 1.8 N 13 19 7 10 1014.7 1014.7 3.4
20/08:00pm 9.5 6.6 6.4 81 1.4 N 11 15 6 8 1014.6 1014.6 3.4
20/07:30pm 9.7 8.1 6.2 79 1.6 NNW 4 7 2 4 1014.6 1014.6 3.4
20/07:00pm 9.7 6.4 6.2 79 1.6 WNW 13 19 7 10 1014.0 1014.0 3.4
20/06:30pm 9.5 7.4 6.8 83 1.3 NW 7 11 4 6 1014.0 1014.0 3.4
20/06:00pm 9.4 7.0 6.8 84 1.2 N 9 13 5 7 1013.2 1013.2 3.4
20/05:30pm 9.3 6.2 7.3 87 0.9 N 13 15 7 8 1013.0 1013.0 3.4
20/05:00pm 9.7 6.6 7.1 84 1.2 NW 13 19 7 10 1013.1 1013.1 3.4
20/04:30pm 9.8 5.2 6.7 81 1.5 N 20 33 11 18 1012.7 1012.7 3.2
20/04:00pm 10.2 4.2 6.9 80 1.6 NNE 28 33 15 18 1013.0 1013.0 3.0
20/03:30pm 10.5 6.7 7.7 83 1.3 NNE 17 26 9 14 1013.9 1013.9 2.6
20/03:00pm 10.0 5.6 7.3 83 1.3 N 20 28 11 15 1015.4 1015.4 2.6
20/02:30pm 9.6 5.4 7.4 86 1.0 NNE 19 26 10 14 1016.0 1016.0 2.6
20/02:00pm 9.5 6.5 7.6 88 0.9 N 13 17 7 9 1016.6 1016.6 2.6
20/01:30pm 9.5 5.7 7.4 87 1.0 NNE 17 24 9 13 1017.6 1017.6 2.2
20/01:00pm 9.7 5.4 6.8 82 1.4 N 19 26 10 14 1018.9 1018.9 1.2
20/12:30pm 10.0 5.5 6.2 77 1.8 N 19 22 10 12 1019.9 1019.9 0.4
20/12:00pm 11.8 7.3 4.1 59 3.4 NNW 17 22 9 12 1021.1 1021.1 0.0
20/11:30am 12.4 7.5 4.1 57 3.7 NW 19 22 10 12 1022.1 1022.1 0.0
20/11:00am 14.2 9.1 0.5 39 5.8 NW 17 22 9 12 1022.7 1022.7 0.0
20/10:30am 13.8 10.8 0.8 41 5.5 SW 6 9 3 5 1022.3 1022.3 0.0
20/10:00am 13.5 11.3 0.9 42 5.3 W 2 9 1 5 1021.8 1021.8 0.0
20/09:30am 13.6 11.8 0.9 42 5.4 CALM 0 7 0 4 1021.4 1021.4 0.0
20/09:00am 11.5 8.3 0.6 47 4.5 W 7 11 4 6 1021.9 1021.9 0.0
20/08:30am 9.9 7.7 0.8 53 3.7 W 2 6 1 3 1021.8 1021.8 0.0
20/08:00am 8.2 5.1 1.6 63 2.7 SW 7 11 4 6 1022.2 1022.2 0.0
20/07:30am 4.1 0.6 1.0 80 1.2 SSW 9 11 5 6 1022.4 1022.4 0.0
20/07:00am 2.4 -2.1 0.0 84 0.9 W 13 15 7 8 1022.2 1022.2 0.0
20/06:30am 3.0 -1.8 0.2 82 1.0 WSW 15 17 8 9 1022.1 1022.1 0.0
20/06:00am 1.9 -1.3 -0.7 83 0.9 WSW 6 9 3 5 1022.1 1022.1 0.0
20/05:30am 2.3 0.3 -0.4 82 1.0 CALM 0 6 0 3 1022.2 1022.2 0.0
20/05:00am 2.7 -0.6 -0.2 81 1.1 SW 7 7 4 4 1022.5 1022.5 0.0
20/04:30am 2.2 -1.0 -0.5 82 1.0 WSW 6 9 3 5 1022.7 1022.7 0.0
20/04:00am 3.7 1.8 0.4 79 1.2 CALM 0 0 0 0 1022.9 1022.9 0.0
20/03:30am 3.4 1.5 0.5 81 1.1 CALM 0 0 0 0 1023.1 1023.1 0.0
20/03:00am 6.3 2.8 1.4 71 1.9 ESE 9 11 5 6 1023.5 1023.5 0.0
20/02:30am 4.9 1.7 0.9 75 1.5 S 7 9 4 5 1024.0 1024.0 0.0
20/02:00am 5.7 3.9 1.4 74 1.7 CALM 0 6 0 3 1024.4 1024.4 0.0
20/01:30am 6.4 4.6 1.5 71 2.0 CALM 0 0 0 0 1024.8 1024.8 0.0
20/01:00am 8.6 4.9 2.2 64 2.7 SE 11 15 6 8 1024.9 1024.9 0.0
20/12:30am 9.2 4.9 3.4 67 2.5 SE 15 19 8 10 1025.0 1025.0 0.0
20/12:00am 9.8 6.1 4.4 69 2.4 SE 13 17 7 9 1025.1 1025.1 0.0
 
Date/Time
CST
Temp
°C
App
Temp
°C
Dew
Point
°C
Rel
Hum
%
Delta-T
°C
Wind Press
QNH
hPa
Press
MSL
hPa
Rain since
9am
mm
Dir  Spd
km/h
Gust
km/h
Spd
kts
Gust
kts
19/11:30pm 9.9 5.7 5.5 74 2.0 SE 17 20 9 11 1025.4 1025.4 0.0
19/11:00pm 10.3 6.6 6.5 77 1.8 SE 15 20 8 11 1026.0 1026.0 0.0
19/10:30pm 10.7 6.4 7.0 78 1.7 SE 19 24 10 13 1026.1 1026.1 0.0
19/10:00pm 10.8 6.4 7.3 79 1.7 SE 20 28 11 15 1026.2 1026.2 0.0
19/09:30pm 11.0 6.6 7.3 78 1.8 SE 20 28 11 15 1026.2 1026.2 0.0
19/09:00pm 10.9 6.3 6.5 74 2.1 SE 20 26 11 14 1026.4 1026.4 0.0
19/08:30pm 11.2 6.1 6.1 71 2.4 SE 22 28 12 15 1026.4 1026.4 0.0
19/08:00pm 11.2 6.3 4.9 65 2.9 SE 20 24 11 13 1026.6 1026.6 0.0
19/07:30pm 11.4 6.4 4.6 63 3.1 SE 20 24 11 13 1026.5 1026.5 0.0
19/07:00pm 11.9 7.4 6.2 68 2.7 SE 19 22 10 12 1026.3 1026.3 0.0
19/06:30pm 12.3 7.9 4.8 60 3.4 SE 17 24 9 13 1026.3 1026.3 0.0
19/06:00pm 12.6 8.9 4.6 58 3.6 SSE 13 17 7 9 1026.5 1026.5 0.0
19/05:30pm 14.2 9.8 4.5 52 4.5 SSE 17 22 9 12 1026.4 1026.4 0.0
19/05:00pm 15.0 10.2 4.7 50 4.8 SE 19 24 10 13 1026.5 1026.5 0.0
19/04:30pm 15.3 10.3 4.7 49 4.9 SE 20 24 11 13 1026.4 1026.4 0.0
19/04:00pm 16.0 12.0 5.0 48 5.2 SE 15 22 8 12 1026.5 1026.5 0.0
19/03:30pm 15.9 11.5 4.9 48 5.2 SE 17 22 9 12 1026.5 1026.5 0.0
19/03:00pm 16.2 12.2 4.9 47 5.3 SE 15 30 8 16 1026.8 1026.8 0.0
19/02:30pm 16.1 12.4 4.5 46 5.4 SE 13 20 7 11 1027.3 1027.3 0.0
19/02:00pm 16.3 12.6 4.4 45 5.6 ESE 13 20 7 11 1027.9 1027.9 0.0
19/01:30pm 15.8 11.2 3.6 44 5.6 SE 17 24 9 13 1028.3 1028.3 0.0
19/01:00pm 15.8 10.3 3.9 45 5.5 SSE 22 32 12 17 1028.4 1028.4 0.0
19/12:30pm 15.0 9.9 4.1 48 5.0 SE 20 28 11 15 1029.2 1029.2 0.0
19/12:00pm 14.8 9.3 3.9 48 5.0 SE 22 33 12 18 1029.6 1029.6 0.0
19/11:30am 15.2 9.7 4.0 47 5.1 SE 22 32 12 17 1030.1 1030.1 0.0
19/11:00am 15.0 10.2 4.4 49 4.9 SE 19 26 10 14 1030.5 1030.5 0.0
19/10:30am 14.7 11.0 6.3 57 4.0 ESE 15 20 8 11 1030.8 1030.8 0.0
19/10:00am 13.1 11.0 6.7 65 3.1 E 7 13 4 7 1030.9 1030.9 0.0
19/09:30am 12.4 11.7 7.1 70 2.5 CALM 0 0 0 0 1031.0 1031.0 0.0
19/09:00am 10.3 8.6 5.9 74 2.0 SW 4 7 2 4 1031.0 1031.0 0.2
19/08:30am 8.5 6.4 6.6 88 0.9 WNW 7 9 4 5 1030.8 1030.8 0.2
19/08:07am 6.3 3.9 5.4 94 0.4 NW 7 9 4 5 1030.5 1030.5 0.2
19/08:00am 5.6 3.3 5.0 96 0.3 W 6 9 3 5 1030.4 1030.4 0.2
19/07:42am 3.1 0.2 2.4 95 0.3 W 7 9 4 5 1030.1 1030.1 0.2
19/07:30am 2.0 -1.0 1.1 94 0.3 NW 6 9 3 5 1030.1 1030.1 0.2
19/07:00am 1.2 -0.8 0.2 93 0.4 CALM 0 6 0 3 1029.7 1029.7 0.2
19/06:30am 2.2 0.4 1.3 94 0.3 CALM 0 4 0 2 1029.4 1029.4 0.2
19/06:00am 2.4 -0.1 1.4 93 0.4 SSE 4 6 2 3 1028.9 1028.9 0.2
19/05:30am 3.2 0.4 2.3 94 0.4 SSW 6 9 3 5 1028.5 1028.5 0.2
19/05:00am 3.4 0.6 2.2 92 0.5 SSE 6 9 3 5 1028.4 1028.4 0.0
19/04:30am 3.8 0.5 2.6 92 0.5 SW 9 13 5 7 1028.2 1028.2 0.0
19/04:00am 5.1 2.5 4.1 93 0.4 SSW 7 9 4 5 1028.1 1028.1 0.0
19/03:30am 5.4 1.3 4.5 94 0.4 SW 15 17 8 9 1028.1 1028.1 0.0
19/03:00am 4.6 0.4 3.9 95 0.3 SW 15 17 8 9 1028.1 1028.1 0.0
19/02:30am 3.8 0.2 2.9 94 0.4 WSW 11 13 6 7 1028.1 1028.1 0.0
19/02:00am 3.6 -0.1 2.6 93 0.4 SW 11 11 6 6 1028.3 1028.3 0.0
19/01:30am 3.7 0.4 2.7 93 0.4 SW 9 11 5 6 1028.5 1028.5 0.0
19/01:00am 4.3 1.1 3.1 92 0.5 SW 9 11 5 6 1028.4 1028.4 0.0
19/12:30am 4.2 1.3 2.6 89 0.6 W 7 11 4 6 1028.3 1028.3 0.0
19/12:00am 5.9 4.6 4.2 89 0.7 CALM 0 0 0 0 1028.3 1028.3 0.0
 
Date/Time
CST
Temp
°C
App
Temp
°C
Dew
Point
°C
Rel
Hum
%
Delta-T
°C
Wind Press
QNH
hPa
Press
MSL
hPa
Rain since
9am
mm
Dir  Spd
km/h
Gust
km/h
Spd
kts
Gust
kts
18/11:30pm 5.9 4.6 4.1 88 0.8 CALM 0 0 0 0 1028.3 1028.3 0.0
18/11:00pm 7.3 6.2 5.1 86 1.0 CALM 0 4 0 2 1028.3 1028.3 0.0
18/10:30pm 8.5 6.4 6.0 84 1.1 E 6 9 3 5 1028.4 1028.4 0.0
18/10:00pm 7.3 4.8 4.8 84 1.1 WSW 7 11 4 6 1028.2 1028.2 0.0
18/09:30pm 7.9 5.6 4.7 80 1.4 NNE 6 9 3 5 1028.1 1028.1 0.0
18/09:00pm 9.8 7.1 5.6 75 1.9 S 9 11 5 6 1027.9 1027.9 0.0
18/08:30pm 10.4 6.6 5.8 73 2.1 SSE 15 17 8 9 1027.7 1027.7 0.0
18/08:00pm 10.8 6.6 5.8 71 2.3 SSE 17 22 9 12 1027.5 1027.5 0.0
18/07:30pm 11.4 6.6 5.7 68 2.6 SSE 20 26 11 14 1027.2 1027.2 0.0
18/07:00pm 11.3 7.1 5.6 68 2.6 SSE 17 22 9 12 1026.9 1026.9 0.0
18/06:30pm 12.1 7.3 5.5 64 3.0 SSE 20 24 11 13 1026.5 1026.5 0.0
18/06:00pm 12.7 6.7 5.4 61 3.4 SE 26 32 14 17 1026.1 1026.1 0.0
18/05:30pm 13.2 7.4 6.3 63 3.3 SE 26 35 14 19 1025.8 1025.8 0.0
18/05:00pm 14.0 7.9 6.4 60 3.7 SE 28 41 15 22 1025.4 1025.4 0.0
18/04:30pm 14.6 8.2 5.1 53 4.4 SE 28 41 15 22 1025.2 1025.2 0.0
18/04:00pm 15.0 8.5 2.9 44 5.4 SE 26 35 14 19 1025.2 1025.2 0.0
18/03:30pm 15.5 8.0 3.3 44 5.5 SE 32 37 17 20 1025.1 1025.1 0.0
18/03:00pm 15.3 8.6 3.5 45 5.4 SE 28 37 15 20 1025.1 1025.1 0.0
18/02:30pm 15.2 8.4 4.9 50 4.8 SE 30 41 16 22 1025.1 1025.1 0.0
18/02:00pm 17.1 11.1 5.1 45 5.7 SSW 26 35 14 19 1025.1 1025.1 0.0
18/01:30pm 16.7 10.5 2.0 37 6.5 SSW 24 37 13 20 1025.0 1025.0 0.0
18/01:00pm 16.2 9.6 2.2 39 6.3 SW 26 35 14 19 1025.2 1025.2 0.0
18/12:30pm 15.8 9.7 2.6 41 5.9 SSW 24 39 13 21 1025.7 1025.7 0.0
18/12:00pm 15.6 9.6 3.1 43 5.6 SSW 24 35 13 19 1026.0 1026.0 0.0
18/11:30am 15.3 8.9 3.1 44 5.5 SSW 26 37 14 20 1026.3 1026.3 0.0
18/11:00am 14.9 9.5 4.6 50 4.8 SW 22 32 12 17 1026.6 1026.6 0.0
18/10:30am 14.6 10.2 4.9 52 4.5 SW 17 24 9 13 1026.6 1026.6 0.0

Other Formats:

Comma delimited format used in spreadsheet applications
http://www.bom.gov.au/fwo/IDS60801/IDS60801.95666.axf

JavaScript Object Notation format (JSON) in row-major order
http://www.bom.gov.au/fwo/IDS60801/IDS60801.95666.json